createdAt,value
2023-02-08T00:01:25.957Z,-0.90
2023-02-08T00:03:54.476Z,-0.68
2023-02-08T00:06:23.080Z,-1.04
2023-02-08T00:08:52.789Z,-0.80
2023-02-08T00:11:21.172Z,-1.75
2023-02-08T00:13:49.500Z,-1.52
2023-02-08T00:16:18.567Z,-1.50
2023-02-08T00:18:47.049Z,-0.82
2023-02-08T00:21:18.152Z,-0.82
2023-02-08T00:23:46.824Z,-0.56
2023-02-08T00:26:17.496Z,-0.28
2023-02-08T00:28:46.343Z,-0.54
2023-02-08T00:31:14.667Z,-0.96
2023-02-08T00:33:43.012Z,-1.05
2023-02-08T00:36:13.470Z,-0.98
2023-02-08T00:38:41.795Z,-0.83
2023-02-08T00:41:10.227Z,-0.26
2023-02-08T00:43:40.021Z,-0.33
2023-02-08T00:46:09.714Z,-0.80
2023-02-08T00:48:38.001Z,-1.36
2023-02-08T00:51:08.283Z,-1.55
2023-02-08T00:53:38.174Z,-0.86
2023-02-08T00:56:07.171Z,-0.81
2023-02-08T00:58:36.298Z,-0.73
2023-02-08T01:01:07.397Z,-0.50
2023-02-08T01:03:36.973Z,-0.27
2023-02-08T01:06:06.930Z,-2.03
2023-02-08T01:08:35.211Z,-2.51
2023-02-08T01:11:05.409Z,-2.63
2023-02-08T01:13:33.741Z,-2.23
2023-02-08T01:16:12.116Z,-2.91
2023-02-08T01:18:41.425Z,-2.51
2023-02-08T01:21:11.605Z,-1.88
2023-02-08T01:23:41.192Z,-1.20
2023-02-08T01:26:10.589Z,-0.97
2023-02-08T01:28:39.903Z,-1.90
2023-02-08T01:31:11.327Z,-1.52
2023-02-08T01:33:39.720Z,-1.36
2023-02-08T01:36:09.657Z,-1.09
2023-02-08T01:38:38.404Z,-1.87
2023-02-08T01:41:08.980Z,-1.22
2023-02-08T01:44:01.904Z,-1.28
2023-02-08T01:46:32.817Z,-1.04
2023-02-08T01:49:04.105Z,-1.39
2023-02-08T01:51:36.224Z,-1.01
2023-02-08T01:54:08.505Z,-1.24
2023-02-08T01:56:40.189Z,-1.18
2023-02-08T01:59:12.188Z,-1.14
2023-02-08T02:01:44.889Z,-0.87
2023-02-08T02:04:13.957Z,-1.55
2023-02-08T02:06:45.056Z,-1.71
2023-02-08T02:09:19.016Z,-2.14
2023-02-08T02:11:47.437Z,-2.05
2023-02-08T02:14:17.049Z,-1.78
2023-02-08T02:16:46.823Z,-1.77
2023-02-08T02:19:24.373Z,-1.74
2023-02-08T02:22:07.228Z,-1.70
2023-02-08T02:25:04.651Z,-1.36
2023-02-08T02:28:00.317Z,-1.22
2023-02-08T02:30:43.216Z,-1.02
2023-02-08T02:33:44.965Z,-2.27
2023-02-08T02:36:21.736Z,-2.75
2023-02-08T02:39:04.234Z,-2.82
2023-02-08T02:41:59.160Z,-3.00
2023-02-08T02:44:38.867Z,-2.47
2023-02-08T02:47:13.506Z,-2.03
2023-02-08T02:49:52.048Z,-2.19
2023-02-08T02:52:28.464Z,-3.03
2023-02-08T02:55:04.337Z,-2.04
2023-02-08T02:57:35.634Z,-1.74
2023-02-08T03:00:26.384Z,-2.00
2023-02-08T03:02:55.788Z,-1.79
2023-02-08T03:05:26.123Z,-2.24
2023-02-08T03:08:06.660Z,-1.41
2023-02-08T03:11:06.007Z,-2.58
2023-02-08T03:13:47.286Z,-2.27
2023-02-08T03:16:21.143Z,-1.86
2023-02-08T03:19:03.584Z,-3.69
2023-02-08T03:21:41.754Z,-3.99
2023-02-08T03:24:22.721Z,-4.59
2023-02-08T03:26:58.580Z,-4.34
2023-02-08T03:29:37.020Z,-4.34
2023-02-08T03:32:10.712Z,-3.49
2023-02-08T03:34:47.444Z,-3.47
2023-02-08T03:37:22.967Z,-3.59
2023-02-08T03:39:55.520Z,-3.36
2023-02-08T03:42:28.332Z,-2.87
2023-02-08T03:45:01.047Z,-3.23
2023-02-08T03:47:33.670Z,-3.12
2023-02-08T03:50:06.307Z,-3.91
2023-02-08T03:52:37.442Z,-3.40
2023-02-08T03:55:10.346Z,-2.53
2023-02-08T03:57:44.076Z,-3.63
2023-02-08T04:00:16.116Z,-3.41
2023-02-08T04:02:52.641Z,-3.43
2023-02-08T04:05:21.880Z,-3.19
2023-02-08T04:07:52.063Z,-2.41
2023-02-08T04:10:20.447Z,-3.63
2023-02-08T04:12:49.868Z,-2.57
2023-02-08T04:15:18.680Z,-2.11
2023-02-08T04:17:47.088Z,-2.80
2023-02-08T04:20:15.549Z,-2.39
2023-02-08T04:22:43.850Z,-2.51
2023-02-08T04:25:13.529Z,-3.19
2023-02-08T04:27:41.890Z,-2.78
2023-02-08T04:30:11.114Z,-3.01
2023-02-08T04:32:39.500Z,-2.76
2023-02-08T04:35:08.300Z,-3.02
2023-02-08T04:37:36.688Z,-3.16
2023-02-08T04:40:05.431Z,-3.42
2023-02-08T04:42:36.215Z,-3.63
2023-02-08T04:45:04.848Z,-3.48
2023-02-08T04:47:33.081Z,-3.93
2023-02-08T04:50:01.382Z,-4.19
2023-02-08T04:52:29.639Z,-3.62
2023-02-08T04:54:57.936Z,-3.77
2023-02-08T04:57:26.264Z,-3.87
2023-02-08T04:59:55.890Z,-4.20
2023-02-08T05:02:24.143Z,-4.05
2023-02-08T05:04:52.420Z,-3.85
2023-02-08T05:07:20.793Z,-3.41
2023-02-08T05:09:49.065Z,-2.84
2023-02-08T05:12:17.380Z,-2.63
2023-02-08T05:14:45.675Z,-2.84
2023-02-08T05:17:15.392Z,-2.78
2023-02-08T05:19:43.694Z,-2.74
2023-02-08T05:22:12.020Z,-3.18
2023-02-08T05:24:40.489Z,-3.33
2023-02-08T05:27:08.846Z,-3.71
2023-02-08T05:29:37.072Z,-3.87
2023-02-08T05:32:05.597Z,-3.77
2023-02-08T05:34:35.313Z,-3.89
2023-02-08T05:37:03.589Z,-4.13
2023-02-08T05:39:31.977Z,-4.78
2023-02-08T05:42:00.208Z,-4.19
2023-02-08T05:44:28.627Z,-4.46
2023-02-08T05:46:57.010Z,-4.54
2023-02-08T05:49:25.586Z,-4.84
2023-02-08T05:51:55.677Z,-4.42
2023-02-08T05:54:24.154Z,-4.30
2023-02-08T05:56:52.505Z,-4.19
2023-02-08T05:59:20.809Z,-4.29
2023-02-08T06:01:49.655Z,-4.74
2023-02-08T06:04:17.976Z,-4.37
2023-02-08T06:06:46.454Z,-3.98
2023-02-08T06:09:16.179Z,-4.28
2023-02-08T06:11:44.875Z,-3.71
2023-02-08T06:14:13.324Z,-3.37
2023-02-08T06:16:44.677Z,-3.69
2023-02-08T06:19:13.473Z,-3.55
2023-02-08T06:21:42.374Z,-2.88
2023-02-08T06:24:11.620Z,-2.72
2023-02-08T06:26:41.319Z,-2.32
2023-02-08T06:29:09.723Z,-2.01
2023-02-08T06:31:38.471Z,-1.42
2023-02-08T06:34:06.707Z,-1.06
2023-02-08T06:36:35.110Z,-0.81
2023-02-08T06:39:03.415Z,-0.70
2023-02-08T06:41:31.703Z,-0.17
2023-02-08T06:44:02.352Z,-0.18
2023-02-08T06:46:30.816Z,0.06
2023-02-08T06:49:00.504Z,0.72
2023-02-08T06:51:29.220Z,0.76
2023-02-08T06:53:57.581Z,0.78
2023-02-08T06:56:25.947Z,1.38
2023-02-08T06:58:54.198Z,1.16
2023-02-08T07:01:23.897Z,0.85
2023-02-08T07:03:52.373Z,-0.41
2023-02-08T07:06:21.883Z,0.61
2023-02-08T07:08:50.251Z,1.21
2023-02-08T07:11:20.501Z,2.42
2023-02-08T07:13:49.927Z,2.20
2023-02-08T07:16:21.079Z,2.89
2023-02-08T07:18:50.771Z,2.72
2023-02-08T07:21:19.056Z,3.11
2023-02-08T07:23:47.406Z,3.42
2023-02-08T07:26:16.050Z,3.59
2023-02-08T07:28:44.649Z,2.96
2023-02-08T07:31:14.949Z,3.59
2023-02-08T07:33:43.488Z,3.88
2023-02-08T07:36:13.286Z,4.85
2023-02-08T07:38:41.585Z,5.04
2023-02-08T07:41:11.689Z,5.16
2023-02-08T07:43:42.097Z,5.99
2023-02-08T07:46:11.505Z,4.61
2023-02-08T07:48:40.471Z,4.69
2023-02-08T07:51:09.904Z,4.82
2023-02-08T07:53:40.041Z,3.71
2023-02-08T07:56:10.495Z,3.68
2023-02-08T07:58:39.114Z,5.25
2023-02-08T08:01:21.280Z,6.37
2023-02-08T08:03:50.516Z,4.72
2023-02-08T08:06:19.269Z,6.05
2023-02-08T08:08:49.115Z,7.05
2023-02-08T08:11:18.142Z,7.66
2023-02-08T08:13:46.592Z,8.40
2023-02-08T08:16:14.971Z,9.33
2023-02-08T08:18:43.234Z,9.49
2023-02-08T08:21:11.664Z,8.44
2023-02-08T08:23:40.811Z,8.83
2023-02-08T08:26:13.970Z,9.31
2023-02-08T08:28:43.426Z,9.30
2023-02-08T08:31:13.181Z,9.08
2023-02-08T08:33:41.657Z,9.27
2023-02-08T08:36:10.682Z,10.13
2023-02-08T08:38:41.136Z,10.09
2023-02-08T08:41:12.752Z,10.27
2023-02-08T08:43:41.104Z,9.71
2023-02-08T08:46:10.258Z,11.82
2023-02-08T08:48:39.623Z,12.72
2023-02-08T08:51:08.616Z,11.40
2023-02-08T08:53:37.490Z,10.03
2023-02-08T08:56:06.733Z,11.15
2023-02-08T08:58:36.479Z,11.84
2023-02-08T09:01:05.471Z,11.65
2023-02-08T09:03:34.022Z,11.54
2023-02-08T09:06:02.294Z,11.75
2023-02-08T09:08:30.605Z,12.18
2023-02-08T09:10:58.835Z,10.38
2023-02-08T09:13:27.142Z,10.49
2023-02-08T09:15:56.847Z,10.04
2023-02-08T09:18:25.153Z,9.94
2023-02-08T09:20:53.406Z,10.52
2023-02-08T09:23:21.655Z,9.45
2023-02-08T09:25:50.194Z,10.92
2023-02-08T09:28:18.688Z,10.46
2023-02-08T09:30:47.031Z,12.02
2023-02-08T09:33:16.864Z,12.41
2023-02-08T09:35:45.223Z,12.38
2023-02-08T09:38:13.508Z,12.07
2023-02-08T09:40:50.774Z,13.51
2023-02-08T09:43:26.695Z,10.86
2023-02-08T09:46:02.004Z,10.33
2023-02-08T09:48:36.174Z,11.00
2023-02-08T09:51:11.838Z,9.72
2023-02-08T09:53:46.667Z,10.04
2023-02-08T09:56:20.276Z,11.52
2023-02-08T09:58:52.968Z,9.87
2023-02-08T10:01:26.472Z,9.88
2023-02-08T10:04:00.829Z,10.63
2023-02-08T10:06:30.347Z,11.68
2023-02-08T10:09:03.785Z,10.32
2023-02-08T10:11:45.884Z,10.42
2023-02-08T10:14:31.904Z,10.29
2023-02-08T10:17:11.513Z,11.26
2023-02-08T10:19:55.611Z,12.48
2023-02-08T10:22:33.743Z,12.09
2023-02-08T10:25:23.849Z,10.57
2023-02-08T10:28:08.222Z,9.87
2023-02-08T10:30:45.805Z,10.47
2023-02-08T10:33:21.988Z,11.43
2023-02-08T10:35:54.804Z,11.39
2023-02-08T10:38:37.216Z,9.57
2023-02-08T10:41:20.264Z,8.70
2023-02-08T10:43:54.264Z,6.98
2023-02-08T10:46:30.742Z,8.03
2023-02-08T10:49:08.531Z,7.23
2023-02-08T10:51:38.687Z,7.66
2023-02-08T10:54:09.100Z,8.29
2023-02-08T10:56:44.369Z,8.33
2023-02-08T10:59:20.385Z,6.22
2023-02-08T11:01:59.210Z,6.75
2023-02-08T11:04:36.922Z,6.91
2023-02-08T11:07:25.255Z,7.34
2023-02-08T11:09:54.254Z,6.19
2023-02-08T11:12:27.230Z,6.21
2023-02-08T11:15:00.557Z,6.26
2023-02-08T11:17:41.177Z,4.88
2023-02-08T11:20:23.825Z,8.25
2023-02-08T11:23:02.604Z,8.39
2023-02-08T11:25:40.800Z,6.89
2023-02-08T11:28:31.754Z,8.54
2023-02-08T11:31:02.960Z,7.11
2023-02-08T11:33:35.097Z,8.25
2023-02-08T11:36:09.813Z,7.27
2023-02-08T11:38:43.594Z,7.26
2023-02-08T11:41:22.780Z,7.39
2023-02-08T11:44:04.430Z,7.25
2023-02-08T11:46:36.285Z,6.15
2023-02-08T11:49:05.348Z,6.18
2023-02-08T11:51:35.986Z,6.81
2023-02-08T11:54:08.074Z,7.64
2023-02-08T11:56:36.798Z,8.42
2023-02-08T11:59:21.245Z,8.51
2023-02-08T12:01:49.885Z,9.07
2023-02-08T12:04:19.377Z,9.45
2023-02-08T12:07:07.879Z,8.63
2023-02-08T12:10:08.005Z,9.28
2023-02-08T12:12:50.462Z,11.30
2023-02-08T12:15:26.590Z,12.99
2023-02-08T12:18:21.424Z,12.60
2023-02-08T12:20:58.252Z,14.26
2023-02-08T12:23:39.984Z,13.67
2023-02-08T12:26:19.667Z,12.42
2023-02-08T12:29:04.206Z,11.20
2023-02-08T12:31:53.304Z,11.37
2023-02-08T12:34:29.175Z,11.31
2023-02-08T12:37:26.005Z,11.24
2023-02-08T12:40:21.595Z,10.96
2023-02-08T12:43:04.740Z,11.58
2023-02-08T12:45:47.195Z,11.02
2023-02-08T12:48:29.905Z,9.50
2023-02-08T12:51:05.702Z,9.23
2023-02-08T12:53:39.486Z,9.73
2023-02-08T12:56:16.816Z,10.38
2023-02-08T12:58:48.876Z,10.20
2023-02-08T13:01:21.313Z,9.82
2023-02-08T13:03:53.076Z,10.91
2023-02-08T13:06:24.869Z,10.66
2023-02-08T13:09:01.697Z,12.45
2023-02-08T13:11:38.050Z,12.92
2023-02-08T13:14:20.456Z,12.52
2023-02-08T13:16:53.405Z,12.17
2023-02-08T13:19:30.981Z,11.16
2023-02-08T13:22:01.313Z,11.73
2023-02-08T13:24:35.623Z,12.17
2023-02-08T13:27:07.109Z,11.72
2023-02-08T13:29:37.853Z,11.51
2023-02-08T13:32:11.728Z,11.20
2023-02-08T13:34:44.928Z,10.62
2023-02-08T13:37:26.241Z,10.94
2023-02-08T13:40:09.298Z,10.15
2023-02-08T13:42:42.808Z,11.11
2023-02-08T13:45:26.445Z,11.87
2023-02-08T13:47:59.964Z,11.96
2023-02-08T13:50:47.843Z,9.66
2023-02-08T13:53:17.910Z,10.30
2023-02-08T13:56:05.924Z,9.99
2023-02-08T13:59:01.242Z,9.55
2023-02-08T14:01:33.040Z,9.49
2023-02-08T14:04:28.355Z,9.04
2023-02-08T14:07:01.204Z,9.17
2023-02-08T14:09:42.810Z,9.71
2023-02-08T14:12:22.010Z,9.66
2023-02-08T14:15:23.604Z,9.27
2023-02-08T14:17:58.367Z,9.36
2023-02-08T14:20:32.097Z,8.80
2023-02-08T14:23:03.357Z,10.07
2023-02-08T14:25:41.917Z,9.20
2023-02-08T14:28:28.489Z,8.48
2023-02-08T14:31:00.050Z,8.91
2023-02-08T14:33:33.198Z,8.31
2023-02-08T14:36:05.213Z,8.72
2023-02-08T14:39:05.158Z,9.28
2023-02-08T14:41:49.982Z,8.15
2023-02-08T14:44:54.286Z,7.53
2023-02-08T14:48:05.434Z,7.38
2023-02-08T14:50:53.522Z,6.82
2023-02-08T14:53:31.719Z,6.72
2023-02-08T14:56:06.633Z,7.42
2023-02-08T14:58:41.240Z,6.08
2023-02-08T15:01:18.677Z,5.21
2023-02-08T15:03:48.670Z,5.70
2023-02-08T15:06:53.812Z,6.20
2023-02-08T15:09:25.242Z,5.47
2023-02-08T15:12:06.902Z,5.71
2023-02-08T15:14:38.292Z,6.12
2023-02-08T15:17:08.318Z,5.59
2023-02-08T15:19:39.289Z,5.56
2023-02-08T15:22:32.795Z,5.52
2023-02-08T15:25:05.760Z,5.38
2023-02-08T15:27:35.372Z,5.32
2023-02-08T15:30:03.753Z,5.41
2023-02-08T15:32:32.107Z,5.07
2023-02-08T15:35:02.399Z,4.55
2023-02-08T15:37:35.616Z,4.76
2023-02-08T15:40:04.893Z,4.77
2023-02-08T15:42:35.348Z,5.34
2023-02-08T15:45:04.670Z,5.15
2023-02-08T15:47:36.244Z,5.12
2023-02-08T15:50:09.232Z,3.95
2023-02-08T15:52:39.146Z,4.02
2023-02-08T15:55:09.156Z,3.92
2023-02-08T15:57:44.511Z,4.25
2023-02-08T16:00:18.117Z,3.24
2023-02-08T16:02:53.861Z,3.36
2023-02-08T16:05:26.013Z,3.89
2023-02-08T16:07:56.451Z,3.64
2023-02-08T16:10:35.147Z,4.52
2023-02-08T16:13:06.172Z,4.06
2023-02-08T16:15:46.158Z,3.63
2023-02-08T16:18:34.195Z,3.48
2023-02-08T16:21:04.543Z,3.40
2023-02-08T16:23:36.191Z,3.00
2023-02-08T16:26:18.512Z,2.72
2023-02-08T16:28:57.012Z,2.25
2023-02-08T16:31:29.643Z,2.50
2023-02-08T16:34:05.917Z,2.00
2023-02-08T16:36:37.615Z,2.63
2023-02-08T16:39:47.148Z,2.64
2023-02-08T16:42:29.492Z,2.84
2023-02-08T16:45:16.884Z,2.94
2023-02-08T16:47:47.991Z,2.95
2023-02-08T16:50:18.263Z,2.82
2023-02-08T16:52:49.275Z,2.89
2023-02-08T16:55:21.102Z,2.69
2023-02-08T16:57:53.175Z,3.00
2023-02-08T17:00:27.019Z,2.80
2023-02-08T17:02:56.285Z,2.65
2023-02-08T17:05:27.936Z,2.42
2023-02-08T17:07:56.476Z,2.52
2023-02-08T17:10:28.805Z,2.62
2023-02-08T17:13:18.363Z,2.95
2023-02-08T17:15:49.057Z,3.12
2023-02-08T17:18:17.707Z,2.30
2023-02-08T17:20:46.255Z,2.25
2023-02-08T17:23:15.868Z,2.08
2023-02-08T17:25:44.633Z,1.80
2023-02-08T17:28:18.857Z,1.86
2023-02-08T17:30:49.013Z,1.87
2023-02-08T17:33:19.151Z,1.46
2023-02-08T17:35:49.100Z,1.88
2023-02-08T17:38:17.540Z,2.07
2023-02-08T17:40:46.780Z,1.71
2023-02-08T17:43:16.587Z,1.74
2023-02-08T17:45:45.863Z,1.93
2023-02-08T17:48:15.708Z,1.63
2023-02-08T17:50:47.919Z,1.98
2023-02-08T17:53:16.266Z,1.91
2023-02-08T17:55:47.980Z,1.54
2023-02-08T17:58:18.237Z,1.29
2023-02-08T18:00:46.496Z,1.33
2023-02-08T18:03:17.316Z,1.23
2023-02-08T18:05:45.629Z,1.32
2023-02-08T18:08:14.044Z,1.25
2023-02-08T18:10:42.809Z,1.67
2023-02-08T18:13:11.262Z,1.42
2023-02-08T18:15:41.350Z,1.48
2023-02-08T18:18:13.000Z,1.12
2023-02-08T18:20:45.157Z,1.25
2023-02-08T18:23:13.574Z,0.67
2023-02-08T18:25:42.854Z,0.86
2023-02-08T18:28:15.439Z,0.34
2023-02-08T18:30:46.499Z,0.82
2023-02-08T18:33:15.884Z,0.72
2023-02-08T18:35:49.909Z,0.68
2023-02-08T18:38:18.279Z,0.45
2023-02-08T18:40:46.585Z,0.59
2023-02-08T18:43:14.985Z,0.48
2023-02-08T18:45:46.102Z,0.90
2023-02-08T18:48:14.874Z,1.42
2023-02-08T18:50:43.135Z,1.00
2023-02-08T18:53:11.568Z,1.10
2023-02-08T18:55:39.781Z,1.01
2023-02-08T18:58:08.418Z,0.93
2023-02-08T19:00:36.774Z,1.03
2023-02-08T19:03:08.971Z,1.19
2023-02-08T19:05:38.767Z,0.80
2023-02-08T19:08:07.083Z,0.59
2023-02-08T19:10:37.118Z,0.85
2023-02-08T19:13:07.697Z,1.35
2023-02-08T19:15:36.943Z,1.03
2023-02-08T19:18:07.787Z,1.09
2023-02-08T19:20:36.928Z,0.78
2023-02-08T19:23:05.398Z,1.23
2023-02-08T19:25:37.042Z,0.96
2023-02-08T19:28:06.334Z,1.73
2023-02-08T19:30:34.919Z,1.45
2023-02-08T19:33:03.586Z,2.12
2023-02-08T19:35:38.082Z,2.35
2023-02-08T19:38:07.819Z,2.51
2023-02-08T19:40:36.106Z,2.12
2023-02-08T19:43:07.417Z,2.28
2023-02-08T19:45:36.545Z,1.70
2023-02-08T19:48:05.134Z,1.62
2023-02-08T19:50:34.782Z,0.52
2023-02-08T19:53:03.184Z,1.23
2023-02-08T19:55:31.563Z,0.98
2023-02-08T19:57:59.815Z,0.25
2023-02-08T20:00:28.106Z,0.31
2023-02-08T20:02:56.590Z,0.48
2023-02-08T20:05:24.926Z,1.01
2023-02-08T20:07:54.707Z,1.55
2023-02-08T20:10:22.990Z,1.56
2023-02-08T20:12:51.219Z,1.09
2023-02-08T20:15:19.670Z,1.37
2023-02-08T20:17:47.957Z,0.25
2023-02-08T20:20:16.338Z,0.72
2023-02-08T20:22:44.732Z,0.89
2023-02-08T20:25:14.409Z,0.82
2023-02-08T20:27:42.741Z,0.66
2023-02-08T20:30:12.154Z,-0.03
2023-02-08T20:32:41.049Z,0.06
2023-02-08T20:35:09.506Z,-0.02
2023-02-08T20:37:37.900Z,-0.28
2023-02-08T20:40:06.934Z,-0.48
2023-02-08T20:42:36.588Z,-0.22
2023-02-08T20:45:06.008Z,-0.61
2023-02-08T20:47:45.917Z,-0.17
2023-02-08T20:50:19.013Z,-0.44
2023-02-08T20:52:49.197Z,-0.25
2023-02-08T20:55:17.777Z,-0.59
2023-02-08T20:57:47.410Z,-0.35
2023-02-08T21:00:16.414Z,-0.57
2023-02-08T21:02:44.688Z,-0.75
2023-02-08T21:05:12.978Z,-0.44
2023-02-08T21:07:41.298Z,-0.73
2023-02-08T21:10:10.041Z,-0.76
2023-02-08T21:12:38.596Z,-1.51
2023-02-08T21:15:10.201Z,-1.31
2023-02-08T21:17:40.836Z,-1.25
2023-02-08T21:20:10.162Z,-1.19
2023-02-08T21:22:38.461Z,-1.57
2023-02-08T21:25:07.170Z,-1.55
2023-02-08T21:27:35.519Z,-1.69
2023-02-08T21:30:03.853Z,-1.67
2023-02-08T21:32:33.611Z,-1.25
2023-02-08T21:35:04.804Z,-0.77
2023-02-08T21:37:34.961Z,-1.34
2023-02-08T21:40:03.338Z,-1.40
2023-02-08T21:42:31.616Z,-1.09
2023-02-08T21:44:59.918Z,-1.35
2023-02-08T21:47:28.155Z,-1.55
2023-02-08T21:50:15.393Z,-0.93
2023-02-08T21:53:00.858Z,-0.46
2023-02-08T21:55:29.128Z,-0.04
2023-02-08T21:57:57.447Z,0.34
2023-02-08T22:00:26.007Z,0.81
2023-02-08T22:02:54.324Z,0.42
2023-02-08T22:05:43.844Z,0.93
2023-02-08T22:08:14.023Z,0.09
2023-02-08T22:10:50.125Z,-0.02
2023-02-08T22:13:25.122Z,-0.45
2023-02-08T22:15:54.281Z,-0.27
2023-02-08T22:18:22.593Z,0.41
2023-02-08T22:20:54.010Z,0.03
2023-02-08T22:23:23.760Z,-0.77
2023-02-08T22:25:52.088Z,0.24
2023-02-08T22:28:20.504Z,0.11
2023-02-08T22:30:49.766Z,-0.11
2023-02-08T22:33:18.018Z,0.46
2023-02-08T22:35:46.341Z,0.33
2023-02-08T22:38:16.115Z,0.51
2023-02-08T22:40:44.623Z,0.61
2023-02-08T22:43:13.121Z,0.25
2023-02-08T22:45:42.499Z,0.68
2023-02-08T22:48:13.865Z,-0.21
2023-02-08T22:50:42.373Z,-0.25
2023-02-08T22:53:10.729Z,-0.43
2023-02-08T22:55:40.471Z,-1.27
2023-02-08T22:58:08.785Z,-1.15
2023-02-08T23:00:37.147Z,-0.70
2023-02-08T23:03:05.848Z,-0.01
2023-02-08T23:05:34.490Z,-0.56
2023-02-08T23:08:02.744Z,-1.35
2023-02-08T23:10:31.086Z,-1.77
2023-02-08T23:13:01.290Z,-2.20
2023-02-08T23:15:29.623Z,-2.35
2023-02-08T23:17:58.317Z,-2.62
2023-02-08T23:20:26.815Z,-2.68
2023-02-08T23:22:55.028Z,-2.53
2023-02-08T23:25:23.392Z,-2.31
2023-02-08T23:27:51.666Z,-2.08
2023-02-08T23:30:21.493Z,-1.76
2023-02-08T23:32:49.714Z,-1.66
2023-02-08T23:35:18.059Z,-1.17
2023-02-08T23:37:46.357Z,-1.90
2023-02-08T23:40:14.749Z,-0.79
2023-02-08T23:42:43.072Z,-1.79
2023-02-08T23:45:11.569Z,-2.13
2023-02-08T23:47:41.426Z,-1.76
2023-02-08T23:50:11.340Z,-1.38
2023-02-08T23:52:39.594Z,-1.34
2023-02-08T23:55:08.708Z,-1.57
2023-02-08T23:57:38.387Z,-2.21
